createdAt,value
2017-12-04T00:01:17.664Z,11.37
2017-12-04T00:03:45.465Z,10.80
2017-12-04T00:06:13.394Z,9.67
2017-12-04T00:08:41.362Z,10.67
2017-12-04T00:11:09.347Z,11.20
2017-12-04T00:13:38.854Z,10.50
2017-12-04T00:16:06.676Z,10.80
2017-12-04T00:18:34.594Z,9.33
2017-12-04T00:21:03.206Z,9.70
2017-12-04T00:23:31.938Z,10.23
2017-12-04T00:26:00.110Z,9.60
2017-12-04T00:28:28.013Z,9.40
2017-12-04T00:30:55.970Z,10.33
2017-12-04T00:33:24.052Z,9.27
2017-12-04T00:35:51.867Z,8.47
2017-12-04T00:38:19.648Z,9.13
2017-12-04T00:40:47.646Z,9.40
2017-12-04T00:43:15.513Z,9.23
2017-12-04T00:45:43.347Z,9.10
2017-12-04T00:48:11.351Z,8.50
2017-12-04T00:50:39.893Z,9.83
2017-12-04T00:53:07.972Z,9.10
2017-12-04T00:55:35.942Z,9.20
2017-12-04T00:58:03.961Z,8.87
2017-12-04T01:00:32.697Z,8.93
2017-12-04T01:03:00.579Z,8.40
2017-12-04T01:05:28.565Z,8.53
2017-12-04T01:07:56.625Z,9.53
2017-12-04T01:10:24.491Z,9.03
2017-12-04T01:12:52.367Z,9.10
2017-12-04T01:15:20.227Z,9.77
2017-12-04T01:17:48.807Z,9.03
2017-12-04T01:20:16.763Z,9.57
2017-12-04T01:22:44.620Z,8.70
2017-12-04T01:25:12.508Z,9.13
2017-12-04T01:27:40.476Z,9.73
2017-12-04T01:30:08.262Z,9.50
2017-12-04T01:32:36.320Z,9.00
2017-12-04T01:35:04.309Z,9.63
2017-12-04T01:37:33.501Z,10.57
2017-12-04T01:40:02.142Z,9.27
2017-12-04T01:42:30.195Z,9.17
2017-12-04T01:44:58.111Z,9.33
2017-12-04T01:47:26.371Z,9.53
2017-12-04T01:49:54.526Z,9.37
2017-12-04T01:52:22.526Z,8.50
2017-12-04T01:54:50.366Z,9.20
2017-12-04T01:57:18.170Z,9.20
2017-12-04T01:59:47.032Z,7.20
2017-12-04T02:02:15.009Z,8.60
2017-12-04T02:04:42.854Z,8.83
2017-12-04T02:07:10.744Z,8.63
2017-12-04T02:09:39.397Z,9.07
2017-12-04T02:12:07.497Z,9.43
2017-12-04T02:14:35.273Z,8.40
2017-12-04T02:17:03.643Z,8.87
2017-12-04T02:19:31.791Z,9.60
2017-12-04T02:22:00.062Z,9.30
2017-12-04T02:24:28.476Z,8.20
2017-12-04T02:26:56.616Z,8.00
2017-12-04T02:29:24.508Z,7.70
2017-12-04T02:31:53.188Z,8.47
2017-12-04T02:34:21.066Z,8.53
2017-12-04T02:36:49.307Z,9.23
2017-12-04T02:39:17.690Z,9.13
2017-12-04T02:41:45.758Z,9.20
2017-12-04T02:44:13.575Z,8.87
2017-12-04T02:46:42.332Z,8.53
2017-12-04T02:49:10.201Z,9.03
2017-12-04T02:51:38.145Z,9.30
2017-12-04T02:54:06.659Z,9.70
2017-12-04T02:56:35.113Z,9.80
2017-12-04T02:59:03.178Z,9.03
2017-12-04T03:01:31.274Z,8.10
2017-12-04T03:03:59.049Z,9.80
2017-12-04T03:06:26.978Z,9.23
2017-12-04T03:08:55.591Z,9.93
2017-12-04T03:11:23.738Z,8.60
2017-12-04T03:13:51.626Z,10.37
2017-12-04T03:16:19.672Z,10.00
2017-12-04T03:18:47.491Z,11.07
2017-12-04T03:21:16.433Z,9.40
2017-12-04T03:23:44.419Z,9.50
2017-12-04T03:26:12.577Z,9.40
2017-12-04T03:28:40.665Z,8.60
2017-12-04T03:31:08.732Z,8.70
2017-12-04T03:33:36.922Z,9.30
2017-12-04T03:36:04.761Z,9.83
2017-12-04T03:38:32.944Z,8.00
2017-12-04T03:41:00.863Z,10.23
2017-12-04T03:43:28.691Z,8.70
2017-12-04T03:45:56.887Z,10.40
2017-12-04T03:48:25.590Z,8.53
2017-12-04T03:50:53.511Z,10.17
2017-12-04T03:53:21.382Z,9.10
2017-12-04T03:55:49.331Z,9.60
2017-12-04T03:58:17.293Z,8.50
2017-12-04T04:00:45.070Z,9.17
2017-12-04T04:03:13.024Z,10.13
2017-12-04T04:05:41.024Z,9.70
2017-12-04T04:08:09.798Z,8.57
2017-12-04T04:10:37.669Z,8.20
2017-12-04T04:13:05.619Z,10.37
2017-12-04T04:15:33.894Z,9.80
2017-12-04T04:18:01.787Z,9.20
2017-12-04T04:20:29.629Z,9.57
2017-12-04T04:22:57.595Z,9.50
2017-12-04T04:25:25.464Z,9.60
2017-12-04T04:27:53.553Z,10.20
2017-12-04T04:30:21.522Z,9.77
2017-12-04T04:32:49.879Z,10.80
2017-12-04T04:35:17.661Z,11.60
2017-12-04T04:37:45.427Z,11.33
2017-12-04T04:40:13.373Z,12.00
2017-12-04T04:42:41.257Z,12.80
2017-12-04T04:45:09.518Z,12.33
2017-12-04T04:47:37.501Z,13.47
2017-12-04T04:50:05.472Z,13.37
2017-12-04T04:52:34.061Z,12.87
2017-12-04T04:55:02.405Z,13.30
2017-12-04T04:57:30.303Z,13.30
2017-12-04T04:59:58.249Z,14.47
2017-12-04T05:02:26.637Z,13.93
2017-12-04T05:04:54.443Z,13.40
2017-12-04T05:07:23.198Z,14.10
2017-12-04T05:09:52.192Z,13.37
2017-12-04T05:12:20.853Z,15.50
2017-12-04T05:14:49.508Z,14.70
2017-12-04T05:17:17.640Z,15.17
2017-12-04T05:19:46.131Z,14.53
2017-12-04T05:22:14.083Z,13.57
2017-12-04T05:24:41.956Z,14.97
2017-12-04T05:27:10.098Z,15.00
2017-12-04T05:29:37.983Z,15.60
2017-12-04T05:32:06.020Z,14.13
2017-12-04T05:34:34.969Z,12.97
2017-12-04T05:37:03.383Z,14.17
2017-12-04T05:39:31.508Z,11.63
2017-12-04T05:41:59.329Z,11.70
2017-12-04T05:44:27.445Z,12.10
2017-12-04T05:46:56.956Z,11.47
2017-12-04T05:49:24.816Z,11.50
2017-12-04T05:51:53.498Z,12.07
2017-12-04T05:54:21.357Z,12.90
2017-12-04T05:56:49.306Z,12.67
2017-12-04T05:59:17.104Z,13.10
2017-12-04T06:01:44.940Z,13.77
2017-12-04T06:04:12.726Z,12.77
2017-12-04T06:06:40.570Z,12.73
2017-12-04T06:09:09.335Z,11.67
2017-12-04T06:11:37.148Z,14.10
2017-12-04T06:14:04.923Z,13.30
2017-12-04T06:16:33.672Z,12.03
2017-12-04T06:19:01.568Z,11.23
2017-12-04T06:21:29.510Z,12.07
2017-12-04T06:23:57.376Z,12.67
2017-12-04T06:26:26.118Z,13.33
2017-12-04T06:28:54.698Z,13.87
2017-12-04T06:31:23.331Z,14.10
2017-12-04T06:33:51.208Z,15.47
2017-12-04T06:36:19.067Z,13.50
2017-12-04T06:38:46.873Z,13.77
2017-12-04T06:43:58.464Z,12.60
2017-12-04T06:46:26.303Z,13.13
2017-12-04T06:48:54.487Z,12.47
2017-12-04T06:51:22.540Z,13.07
2017-12-04T06:53:50.426Z,13.47
2017-12-04T06:56:18.312Z,13.40
2017-12-04T06:58:46.959Z,13.30
2017-12-04T07:01:14.852Z,13.40
2017-12-04T07:03:42.707Z,14.27
2017-12-04T07:06:10.666Z,14.00
2017-12-04T07:08:38.523Z,13.47
2017-12-04T07:11:06.307Z,12.20
2017-12-04T07:13:34.090Z,13.40
2017-12-04T07:16:01.919Z,13.60
2017-12-04T07:18:29.798Z,13.17
2017-12-04T07:20:57.774Z,13.70
2017-12-04T07:23:25.603Z,13.20
2017-12-04T07:25:53.407Z,13.30
2017-12-04T07:28:21.281Z,19.23
2017-12-04T07:30:49.039Z,27.83
2017-12-04T07:33:16.800Z,126.97
2017-12-04T07:35:46.204Z,136.33
2017-12-04T07:38:14.152Z,42.63
2017-12-04T07:40:41.992Z,43.10
2017-12-04T07:43:09.941Z,26.90
2017-12-04T07:45:37.763Z,25.13
2017-12-04T07:48:05.721Z,35.67
2017-12-04T07:50:33.609Z,30.93
2017-12-04T07:53:01.504Z,36.27
2017-12-04T07:55:30.061Z,41.40
2017-12-04T07:57:58.000Z,75.47
2017-12-04T08:00:25.895Z,53.17
2017-12-04T08:02:53.859Z,154.87
2017-12-04T08:05:21.834Z,16.43
2017-12-04T08:07:49.658Z,62.30
2017-12-04T08:10:17.596Z,20.23
2017-12-04T08:12:46.135Z,29.03
2017-12-04T08:15:14.026Z,16.63
2017-12-04T08:17:41.973Z,21.77
2017-12-04T08:20:09.900Z,56.23
2017-12-04T08:22:37.789Z,20.87
2017-12-04T08:25:05.780Z,29.70
2017-12-04T08:27:33.639Z,20.60
2017-12-04T08:30:02.103Z,17.47
2017-12-04T08:32:29.993Z,22.63
2017-12-04T08:34:57.814Z,14.53
2017-12-04T08:37:25.700Z,17.80
2017-12-04T08:39:54.262Z,17.30
2017-12-04T08:42:22.175Z,30.80
2017-12-04T08:44:50.248Z,21.73
2017-12-04T08:47:18.194Z,15.87
2017-12-04T08:49:46.075Z,14.23
2017-12-04T08:52:14.127Z,11.80
2017-12-04T08:54:42.012Z,13.70
2017-12-04T08:57:09.886Z,16.10
2017-12-04T08:59:37.711Z,13.93
2017-12-04T09:02:05.513Z,11.93
2017-12-04T09:04:39.684Z,12.50
2017-12-04T09:07:01.265Z,13.00
2017-12-04T09:09:29.825Z,12.90
2017-12-04T09:11:57.587Z,14.23
2017-12-04T09:14:25.466Z,12.73
2017-12-04T09:16:53.320Z,13.90
2017-12-04T09:19:21.212Z,14.97
2017-12-04T09:21:49.799Z,13.33
2017-12-04T09:24:18.466Z,13.27
2017-12-04T09:26:46.451Z,13.90
2017-12-04T09:29:15.115Z,15.90
2017-12-04T09:31:42.955Z,12.20
2017-12-04T09:34:10.799Z,13.70
2017-12-04T09:36:38.678Z,12.93
2017-12-04T09:39:07.479Z,14.87
2017-12-04T09:41:35.373Z,13.77
2017-12-04T09:44:03.220Z,13.97
2017-12-04T09:46:31.179Z,13.53
2017-12-04T09:48:58.973Z,13.60
2017-12-04T09:51:26.914Z,12.40
2017-12-04T09:53:54.885Z,15.83
2017-12-04T09:56:22.760Z,16.40
2017-12-04T09:58:50.631Z,14.63
2017-12-04T10:01:18.615Z,15.23
2017-12-04T10:03:46.382Z,16.27
2017-12-04T10:06:14.319Z,15.63
2017-12-04T10:08:42.221Z,14.77
2017-12-04T10:11:10.810Z,14.50
2017-12-04T10:13:39.448Z,14.00
2017-12-04T10:16:07.437Z,14.80
2017-12-04T10:18:35.391Z,13.90
2017-12-04T10:21:03.371Z,11.80
2017-12-04T10:23:31.327Z,13.83
2017-12-04T10:25:59.189Z,12.70
2017-12-04T10:28:26.987Z,11.97
2017-12-04T10:30:55.666Z,12.23
2017-12-04T10:33:23.609Z,14.23
2017-12-04T10:35:51.502Z,13.87
2017-12-04T10:38:19.388Z,14.37
2017-12-04T10:40:48.667Z,15.57
2017-12-04T10:43:16.644Z,16.60
2017-12-04T10:45:44.507Z,14.80
2017-12-04T10:48:12.389Z,14.73
2017-12-04T10:50:40.338Z,13.53
2017-12-04T10:53:08.414Z,15.90
2017-12-04T10:55:36.209Z,14.70
2017-12-04T10:58:04.133Z,14.57
2017-12-04T11:00:32.123Z,13.27
2017-12-04T11:03:00.770Z,12.87
2017-12-04T11:05:28.657Z,14.60
2017-12-04T11:07:56.615Z,15.20
2017-12-04T11:10:24.571Z,14.53
2017-12-04T11:12:52.560Z,13.03
2017-12-04T11:15:20.507Z,16.27
2017-12-04T11:17:48.323Z,16.80
2017-12-04T11:20:17.577Z,15.30
2017-12-04T11:22:45.541Z,13.20
2017-12-04T11:25:13.455Z,15.40
2017-12-04T11:27:41.395Z,15.40
2017-12-04T11:30:09.367Z,12.77
2017-12-04T11:32:37.231Z,12.70
2017-12-04T11:35:05.300Z,14.80
2017-12-04T11:37:33.280Z,14.33
2017-12-04T11:40:01.140Z,16.77
2017-12-04T11:42:29.006Z,15.10
2017-12-04T11:44:56.872Z,14.93
2017-12-04T11:47:24.738Z,13.93
2017-12-04T11:49:52.718Z,12.97
2017-12-04T11:52:20.761Z,13.00
2017-12-04T11:54:48.752Z,12.80
2017-12-04T11:57:17.308Z,13.87
2017-12-04T11:59:45.203Z,14.90
2017-12-04T12:02:13.004Z,14.07
2017-12-04T12:04:40.832Z,11.43
2017-12-04T12:07:09.521Z,11.60
2017-12-04T12:09:37.487Z,11.40
2017-12-04T12:12:05.338Z,12.10
2017-12-04T12:14:33.192Z,11.13
2017-12-04T12:17:00.995Z,9.60
2017-12-04T12:19:29.746Z,9.80
2017-12-04T12:21:57.642Z,9.23
2017-12-04T12:24:25.417Z,8.20
2017-12-04T12:26:53.964Z,10.40
2017-12-04T12:29:21.821Z,10.57
2017-12-04T12:31:49.812Z,10.23
2017-12-04T12:34:17.670Z,11.40
2017-12-04T12:36:45.551Z,9.83
2017-12-04T12:39:13.526Z,10.73
2017-12-04T12:41:41.371Z,11.20
2017-12-04T12:44:09.295Z,11.80
2017-12-04T12:46:37.115Z,23.17
2017-12-04T12:49:04.955Z,59.07
2017-12-04T12:51:32.826Z,25.23
2017-12-04T12:54:00.687Z,31.13
2017-12-04T12:56:28.660Z,34.97
2017-12-04T12:58:56.540Z,126.97
2017-12-04T13:01:24.446Z,62.67
2017-12-04T13:03:53.083Z,89.97
2017-12-04T13:06:20.858Z,61.43
2017-12-04T13:08:48.643Z,15.90
2017-12-04T13:11:17.428Z,16.70
2017-12-04T13:13:45.375Z,48.27
2017-12-04T13:16:13.243Z,44.93
2017-12-04T13:18:41.113Z,19.60
2017-12-04T13:21:09.093Z,23.90
2017-12-04T13:23:36.876Z,27.17
2017-12-04T13:26:05.531Z,74.03
2017-12-04T13:28:33.322Z,19.90
2017-12-04T13:31:01.901Z,21.90
2017-12-04T13:33:42.540Z,16.10
2017-12-04T13:36:22.294Z,25.50
2017-12-04T13:38:50.079Z,22.20
2017-12-04T13:41:18.724Z,17.17
2017-12-04T13:43:46.490Z,27.80
2017-12-04T13:46:14.265Z,25.60
2017-12-04T13:48:42.208Z,17.67
2017-12-04T13:51:10.104Z,17.90
2017-12-04T13:53:37.964Z,35.73
2017-12-04T13:56:05.782Z,20.40
2017-12-04T13:58:33.611Z,17.63
2017-12-04T14:01:03.085Z,16.33
2017-12-04T14:03:30.863Z,19.33
2017-12-04T14:05:58.730Z,19.30
2017-12-04T14:08:26.590Z,17.23
2017-12-04T14:10:54.448Z,20.00
2017-12-04T14:13:22.362Z,29.00
2017-12-04T14:15:52.141Z,16.53
2017-12-04T14:18:21.662Z,16.43
2017-12-04T14:20:49.458Z,16.47
2017-12-04T14:23:17.365Z,17.00
2017-12-04T14:25:45.249Z,16.23
2017-12-04T14:28:13.120Z,24.20
2017-12-04T14:30:40.963Z,41.20
2017-12-04T14:33:08.709Z,31.00
2017-12-04T14:35:36.598Z,23.60
2017-12-04T14:38:04.472Z,18.80
2017-12-04T14:40:32.339Z,17.83
2017-12-04T14:43:00.202Z,21.87
2017-12-04T14:45:28.030Z,48.40
2017-12-04T14:47:55.843Z,34.33
2017-12-04T14:50:23.643Z,28.03
2017-12-04T14:52:52.291Z,25.37
2017-12-04T14:55:20.148Z,21.60
2017-12-04T14:57:47.976Z,23.33
2017-12-04T15:00:16.007Z,25.07
2017-12-04T15:02:43.929Z,20.70
2017-12-04T15:05:11.826Z,32.57
2017-12-04T15:07:39.888Z,20.13
2017-12-04T15:10:07.758Z,25.73
2017-12-04T15:12:35.724Z,25.97
2017-12-04T15:15:03.780Z,42.20
2017-12-04T15:17:31.771Z,61.60
2017-12-04T15:19:59.606Z,23.93
2017-12-04T15:22:28.715Z,38.90
2017-12-04T15:24:56.839Z,34.03
2017-12-04T15:27:25.668Z,32.40
2017-12-04T15:29:53.639Z,26.63
2017-12-04T15:32:21.810Z,24.50
2017-12-04T15:34:49.787Z,24.33
2017-12-04T15:37:17.684Z,25.17
2017-12-04T15:39:45.739Z,24.37
2017-12-04T15:42:13.642Z,38.43
2017-12-04T15:44:42.374Z,30.93
2017-12-04T15:47:10.366Z,20.17
2017-12-04T15:49:38.852Z,23.10
2017-12-04T15:52:06.836Z,25.30
2017-12-04T15:54:35.518Z,25.40
2017-12-04T15:57:04.393Z,24.47
2017-12-04T15:59:33.482Z,24.63
2017-12-04T16:02:01.358Z,29.43
2017-12-04T16:04:29.318Z,24.10
2017-12-04T16:06:57.192Z,23.53
2017-12-04T16:09:25.045Z,22.23
2017-12-04T16:11:53.023Z,21.47
2017-12-04T16:14:20.956Z,21.87
2017-12-04T16:16:48.951Z,27.43
2017-12-04T16:19:17.043Z,33.80
2017-12-04T16:21:45.970Z,29.77
2017-12-04T16:24:14.064Z,30.20
2017-12-04T16:26:42.340Z,32.07
2017-12-04T16:29:10.395Z,32.33
2017-12-04T16:31:38.309Z,52.73
2017-12-04T16:34:06.350Z,30.80
2017-12-04T16:36:34.325Z,27.93
2017-12-04T16:39:02.288Z,29.00
2017-12-04T16:41:30.395Z,30.70
2017-12-04T16:43:58.328Z,28.43
2017-12-04T16:46:26.399Z,30.20
2017-12-04T16:48:54.368Z,30.53
2017-12-04T16:51:22.254Z,33.63
2017-12-04T16:53:50.611Z,36.97
2017-12-04T16:56:18.686Z,35.50
2017-12-04T16:58:46.579Z,35.30
2017-12-04T17:01:14.506Z,27.50
2017-12-04T17:03:42.616Z,32.63
2017-12-04T17:06:10.594Z,32.20
2017-12-04T17:08:38.551Z,39.23
2017-12-04T17:11:06.628Z,36.77
2017-12-04T17:13:34.570Z,30.17
2017-12-04T17:16:02.461Z,37.20
2017-12-04T17:18:30.382Z,44.43
2017-12-04T17:20:58.391Z,36.00
2017-12-04T17:23:26.339Z,33.83
2017-12-04T17:25:54.240Z,31.37
2017-12-04T17:28:22.208Z,29.00
2017-12-04T17:30:50.346Z,30.57
2017-12-04T17:33:18.441Z,32.57
2017-12-04T17:35:46.285Z,24.63
2017-12-04T17:38:14.107Z,25.30
2017-12-04T17:40:42.755Z,25.27
2017-12-04T17:43:10.607Z,30.80
2017-12-04T17:45:38.587Z,29.83
2017-12-04T17:48:06.749Z,30.40
2017-12-04T17:50:34.595Z,27.20
2017-12-04T17:53:02.507Z,28.50
2017-12-04T17:55:30.569Z,28.97
2017-12-04T17:57:58.442Z,31.90
2017-12-04T18:00:26.414Z,27.73
2017-12-04T18:02:55.282Z,32.67
2017-12-04T18:05:23.313Z,31.63
2017-12-04T18:07:51.942Z,33.00
2017-12-04T18:10:19.898Z,31.90
2017-12-04T18:12:47.826Z,38.97
2017-12-04T18:15:15.939Z,41.23
2017-12-04T18:17:43.945Z,48.50
2017-12-04T18:20:12.726Z,45.53
2017-12-04T18:22:40.766Z,41.90
2017-12-04T18:25:08.857Z,37.40
2017-12-04T18:27:36.726Z,43.47
2017-12-04T18:30:05.431Z,36.00
2017-12-04T18:32:34.286Z,39.90
2017-12-04T18:35:02.277Z,37.80
2017-12-04T18:37:30.326Z,39.37
2017-12-04T18:39:58.424Z,40.67
2017-12-04T18:42:26.599Z,38.77
2017-12-04T18:44:54.635Z,33.17
2017-12-04T18:47:22.818Z,34.00
2017-12-04T18:49:50.974Z,33.90
2017-12-04T18:52:20.086Z,31.57
2017-12-04T18:54:48.008Z,31.33
2017-12-04T18:57:16.009Z,36.60
2017-12-04T18:59:44.355Z,31.50
2017-12-04T19:02:12.358Z,34.60
2017-12-04T19:04:40.304Z,40.27
2017-12-04T19:07:09.321Z,36.23
2017-12-04T19:09:37.431Z,44.43
2017-12-04T19:12:06.382Z,39.00
2017-12-04T19:14:35.427Z,38.47
2017-12-04T19:17:03.661Z,36.73
2017-12-04T19:19:31.829Z,40.30
2017-12-04T19:22:00.053Z,39.90
2017-12-04T19:24:28.174Z,44.63
2017-12-04T19:26:56.243Z,41.90
2017-12-04T19:29:24.449Z,38.40
2017-12-04T19:31:53.013Z,39.57
2017-12-04T19:34:21.176Z,38.00
2017-12-04T19:36:49.250Z,37.00
2017-12-04T19:39:17.298Z,37.80
2017-12-04T19:41:45.386Z,45.30
2017-12-04T19:44:13.567Z,48.27
2017-12-04T19:46:41.959Z,51.00
2017-12-04T19:49:10.354Z,42.77
2017-12-04T19:51:39.150Z,47.00
2017-12-04T19:54:08.013Z,47.53
2017-12-04T19:56:36.187Z,46.77
2017-12-04T19:59:04.884Z,40.57
2017-12-04T20:01:33.945Z,40.33
2017-12-04T20:04:02.043Z,48.47
2017-12-04T20:06:30.058Z,40.40
2017-12-04T20:08:57.996Z,41.27
2017-12-04T20:11:26.062Z,44.60
2017-12-04T20:13:54.096Z,47.77
2017-12-04T20:16:22.168Z,43.13
2017-12-04T20:18:50.194Z,42.97
2017-12-04T20:21:19.171Z,46.83
2017-12-04T20:23:47.335Z,41.07
2017-12-04T20:26:16.289Z,40.97
2017-12-04T20:28:44.381Z,40.60
2017-12-04T20:31:13.185Z,39.53
2017-12-04T20:33:41.438Z,47.83
2017-12-04T20:36:09.448Z,32.73
2017-12-04T20:38:38.394Z,35.77
2017-12-04T20:41:06.304Z,43.47
2017-12-04T20:43:35.286Z,39.13
2017-12-04T20:46:03.498Z,37.27
2017-12-04T20:48:32.063Z,37.27
2017-12-04T20:51:00.960Z,39.10
2017-12-04T20:53:29.809Z,36.27
2017-12-04T20:55:57.846Z,37.60
2017-12-04T20:58:26.058Z,31.70
2017-12-04T21:00:54.238Z,40.07
2017-12-04T21:03:23.413Z,36.27
2017-12-04T21:05:51.374Z,36.60
2017-12-04T21:08:32.691Z,36.53
2017-12-04T21:11:12.531Z,40.77
2017-12-04T21:13:52.758Z,37.00
2017-12-04T21:16:39.602Z,40.70
2017-12-04T21:19:07.568Z,33.03
2017-12-04T21:21:35.647Z,42.97
2017-12-04T21:24:04.738Z,36.10
2017-12-04T21:26:33.595Z,37.40
2017-12-04T21:29:01.490Z,39.43
2017-12-04T21:31:29.424Z,39.77
2017-12-04T21:33:57.515Z,38.50
2017-12-04T21:36:25.669Z,33.70
2017-12-04T21:38:53.577Z,37.50
2017-12-04T21:41:21.536Z,34.30
2017-12-04T21:43:51.239Z,36.07
2017-12-04T21:46:19.309Z,34.90
2017-12-04T21:48:47.282Z,34.00
2017-12-04T21:51:15.261Z,35.60
2017-12-04T21:53:43.198Z,36.10
2017-12-04T21:56:11.213Z,35.07
2017-12-04T21:58:40.097Z,39.97
2017-12-04T22:01:08.779Z,46.33
2017-12-04T22:03:36.746Z,35.27
2017-12-04T22:06:05.434Z,35.83
2017-12-04T22:08:34.134Z,40.33
2017-12-04T22:11:02.894Z,36.60
2017-12-04T22:13:30.761Z,38.97
2017-12-04T22:15:58.729Z,34.90
2017-12-04T22:18:26.880Z,37.53
2017-12-04T22:20:54.760Z,33.00
2017-12-04T22:23:23.666Z,37.77
2017-12-04T22:25:51.599Z,37.60
2017-12-04T22:28:19.502Z,28.27
2017-12-04T22:30:48.253Z,37.90
2017-12-04T22:33:16.167Z,42.50
2017-12-04T22:35:44.959Z,37.27
2017-12-04T22:38:13.714Z,29.23
2017-12-04T22:40:41.697Z,30.90
2017-12-04T22:43:09.758Z,35.30
2017-12-04T22:45:37.661Z,32.33
2017-12-04T22:48:06.425Z,34.70
2017-12-04T22:50:34.388Z,36.73
2017-12-04T22:53:02.356Z,36.17
2017-12-04T22:55:30.328Z,30.73
2017-12-04T22:57:58.366Z,33.33
2017-12-04T23:00:31.278Z,32.47
2017-12-04T23:02:59.164Z,34.73
2017-12-04T23:05:28.871Z,32.23
2017-12-04T23:07:57.639Z,29.07
2017-12-04T23:10:25.689Z,33.17
2017-12-04T23:12:53.523Z,28.40
2017-12-04T23:15:21.518Z,29.30
2017-12-04T23:17:49.484Z,35.70
2017-12-04T23:20:17.449Z,30.80
2017-12-04T23:22:45.462Z,35.07
2017-12-04T23:25:13.699Z,36.03
2017-12-04T23:27:41.669Z,30.37
2017-12-04T23:30:09.567Z,36.70
2017-12-04T23:32:37.520Z,30.43
2017-12-04T23:35:05.491Z,36.00
2017-12-04T23:37:33.475Z,42.20
2017-12-04T23:40:01.430Z,39.77
2017-12-04T23:42:29.307Z,36.80
2017-12-04T23:44:57.077Z,34.93
2017-12-04T23:47:25.834Z,40.17
2017-12-04T23:49:53.812Z,42.93
2017-12-04T23:52:21.702Z,37.77
2017-12-04T23:54:49.550Z,32.60
2017-12-04T23:57:18.115Z,38.80
2017-12-04T23:59:46.124Z,39.40
